Time;durP1;ratioP1;P1;durP2;ratioP2;P2;SDS_P1;SDS_P2;PMS_P1;PMS_P2;Temp;Humidity;BMP_temperature;BMP_pressure;BME280_temperature;BME280_humidity;BME280_pressure;Samples;Min_cycle;Max_cycle;Signal;HPM_P1;HPM_P2
2023/10/21 00:01:19;;;;;;;87.40;33.38;;;9.90;99.90;;;;;;5073124;28;20075;-76
2023/10/21 00:04:06;;;;;;;80.82;32.20;;;10.00;99.90;;;;;;5090637;28;20056;-77
2023/10/21 00:06:52;;;;;;;84.60;33.45;;;10.00;99.90;;;;;;5090596;28;20048;-80
2023/10/21 00:09:38;;;;;;;84.13;33.63;;;10.10;99.90;;;;;;5073117;28;20056;-77
2023/10/21 00:12:25;;;;;;;80.65;32.15;;;10.10;99.90;;;;;;5059318;28;20515;-73
2023/10/21 00:15:11;;;;;;;82.45;31.85;;;10.10;99.90;;;;;;5060006;28;20048;-80
2023/10/21 00:17:57;;;;;;;72.25;29.63;;;10.00;99.90;;;;;;5071908;28;20056;-78
2023/10/21 00:20:43;;;;;;;91.78;34.03;;;10.00;99.90;;;;;;5089787;28;20527;-75
2023/10/21 00:23:29;;;;;;;75.30;31.55;;;9.90;99.90;;;;;;5059097;28;20048;-79
2023/10/21 00:26:16;;;;;;;81.05;31.98;;;9.90;99.90;;;;;;5072219;28;20118;-78
2023/10/21 00:29:05;;;;;;;82.05;30.85;;;9.90;99.90;;;;;;5073574;28;20140;-79
2023/10/21 00:31:51;;;;;;;92.35;32.72;;;9.80;99.90;;;;;;5072645;28;20652;-76
2023/10/21 00:34:40;;;;;;;86.03;32.45;;;9.90;99.90;;;;;;5072077;28;20051;-75
2023/10/21 00:37:26;;;;;;;75.45;29.92;;;9.90;99.90;;;;;;5090238;28;20063;-79
2023/10/21 00:40:12;;;;;;;69.25;29.02;;;9.90;99.90;;;;;;5072146;28;20055;-74
2023/10/21 00:42:58;;;;;;;83.30;31.52;;;9.90;99.90;;;;;;5072421;28;20109;-74
2023/10/21 00:45:44;;;;;;;84.30;32.40;;;10.00;99.90;;;;;;5071832;28;20052;-79
2023/10/21 00:48:31;;;;;;;88.18;31.60;;;10.00;99.90;;;;;;5089562;28;20446;-76
2023/10/21 00:51:18;;;;;;;79.28;31.83;;;10.00;99.90;;;;;;5071933;28;20526;-83
2023/10/21 00:54:05;;;;;;;79.85;31.38;;;10.00;99.90;;;;;;5071775;28;20056;-74
2023/10/21 00:56:53;;;;;;;96.93;34.03;;;10.00;99.90;;;;;;5072550;28;20055;-84
2023/10/21 00:59:41;;;;;;;101.35;34.08;;;10.10;99.90;;;;;;5072291;28;20058;-75
2023/10/21 01:02:27;;;;;;;79.65;30.02;;;10.10;99.90;;;;;;5058452;28;20415;-77
2023/10/21 01:05:15;;;;;;;72.63;29.48;;;10.10;99.90;;;;;;5072308;28;20048;-79
2023/10/21 01:08:01;;;;;;;72.10;28.85;;;10.00;99.90;;;;;;5043894;28;20824;-78
2023/10/21 01:10:47;;;;;;;81.05;31.85;;;10.00;99.90;;;;;;5070837;28;20538;-77
2023/10/21 01:13:33;;;;;;;75.38;30.13;;;10.00;99.90;;;;;;5089655;28;20106;-79
2023/10/21 01:16:19;;;;;;;70.95;29.05;;;10.00;99.90;;;;;;5089044;28;20052;-76
2023/10/21 01:19:07;;;;;;;86.80;31.38;;;10.00;99.90;;;;;;5071568;28;20088;-79
2023/10/21 01:21:53;;;;;;;88.72;30.13;;;10.00;99.90;;;;;;5088818;28;20496;-76
2023/10/21 01:24:39;;;;;;;80.28;30.45;;;10.00;99.90;;;;;;5071282;28;20052;-83
2023/10/21 01:27:25;;;;;;;85.60;32.05;;;10.10;99.90;;;;;;5071390;28;20094;-75
2023/10/21 01:30:11;;;;;;;68.72;28.52;;;10.00;99.90;;;;;;5089742;28;20055;-83
2023/10/21 01:32:57;;;;;;;73.88;28.83;;;10.10;99.90;;;;;;5089894;28;20055;-74
2023/10/21 01:35:43;;;;;;;87.80;31.60;;;10.10;99.90;;;;;;5057883;28;20173;-75
2023/10/21 01:38:29;;;;;;;67.50;27.85;;;10.20;99.90;;;;;;5071663;28;20051;-73
2023/10/21 01:41:15;;;;;;;77.68;30.52;;;10.10;99.90;;;;;;5072404;28;20047;-79
2023/10/21 01:44:01;;;;;;;93.20;33.15;;;10.20;99.90;;;;;;5072469;28;20059;-76
2023/10/21 01:46:47;;;;;;;84.45;31.05;;;10.20;99.90;;;;;;5072405;28;20506;-74
2023/10/21 01:49:33;;;;;;;102.50;34.70;;;10.20;99.90;;;;;;5071168;28;20047;-77
2023/10/21 01:52:20;;;;;;;79.90;30.05;;;10.20;99.90;;;;;;5071579;28;20059;-75
2023/10/21 01:55:08;;;;;;;69.25;29.83;;;10.20;99.90;;;;;;5071359;28;20056;-76
2023/10/21 01:57:54;;;;;;;72.35;27.35;;;10.20;99.90;;;;;;5058220;28;20048;-77
2023/10/21 02:00:41;;;;;;;81.28;29.42;;;10.30;99.90;;;;;;5072243;28;20052;-79
2023/10/21 02:03:26;;;;;;;59.25;25.60;;;10.30;99.90;;;;;;5062741;28;20526;-79
2023/10/21 02:06:12;;;;;;;80.97;28.33;;;10.40;99.90;;;;;;5070894;28;20546;-79
2023/10/21 02:08:59;;;;;;;76.18;29.33;;;10.40;99.90;;;;;;5070956;28;20044;-75
2023/10/21 02:11:45;;;;;;;74.95;27.70;;;10.50;99.90;;;;;;5070924;28;20389;-76
2023/10/21 02:14:31;;;;;;;89.07;31.10;;;10.50;99.90;;;;;;5071112;28;20369;-74
2023/10/21 02:17:17;;;;;;;92.55;31.48;;;10.50;99.90;;;;;;5071001;28;20113;-84
2023/10/21 02:20:03;;;;;;;79.93;27.95;;;10.50;99.90;;;;;;5090182;28;20048;-73
2023/10/21 02:22:49;;;;;;;76.35;27.45;;;10.50;99.90;;;;;;5093235;28;20112;-77
2023/10/21 02:25:35;;;;;;;68.60;25.13;;;10.50;99.90;;;;;;5074916;28;20267;-76
2023/10/21 02:28:21;;;;;;;72.82;27.80;;;10.60;99.90;;;;;;5061823;28;20048;-80
2023/10/21 02:31:09;;;;;;;74.95;29.58;;;10.60;99.90;;;;;;5074551;28;20056;-76
2023/10/21 02:33:55;;;;;;;70.60;26.00;;;10.70;99.90;;;;;;5062012;28;20051;-78
2023/10/21 02:36:41;;;;;;;66.03;25.63;;;10.70;99.90;;;;;;5074354;28;20048;-80
2023/10/21 02:39:27;;;;;;;67.75;27.15;;;10.80;99.90;;;;;;5077976;28;20488;-74
2023/10/21 02:42:13;;;;;;;67.65;26.17;;;10.80;99.90;;;;;;5075054;28;20078;-76
2023/10/21 02:44:59;;;;;;;67.28;26.58;;;10.80;99.90;;;;;;5092270;28;20040;-73
2023/10/21 02:47:46;;;;;;;72.03;27.10;;;10.80;99.90;;;;;;5073750;28;20060;-75
2023/10/21 02:50:32;;;;;;;75.07;28.05;;;10.80;99.90;;;;;;5091663;28;20510;-77
2023/10/21 02:53:18;;;;;;;70.05;28.65;;;10.80;99.90;;;;;;5074810;28;20399;-76
2023/10/21 02:56:05;;;;;;;88.43;31.08;;;10.80;99.90;;;;;;5074260;28;20527;-77
2023/10/21 02:58:51;;;;;;;73.75;29.15;;;10.80;99.90;;;;;;5092256;28;20048;-74
2023/10/21 03:01:37;;;;;;;89.07;33.28;;;10.80;99.90;;;;;;5075034;28;20060;-78
2023/10/21 03:04:23;;;;;;;93.63;33.63;;;10.70;99.90;;;;;;5074047;28;20052;-74
2023/10/21 03:07:10;;;;;;;78.35;31.13;;;10.70;99.90;;;;;;5073702;28;20139;-78
2023/10/21 03:09:56;;;;;;;98.50;35.40;;;10.60;99.90;;;;;;5091931;28;20059;-76
2023/10/21 03:12:42;;;;;;;98.43;36.03;;;10.50;99.90;;;;;;5075098;28;20095;-77
2023/10/21 03:15:28;;;;;;;85.13;35.35;;;10.50;99.90;;;;;;5074643;28;20105;-80
2023/10/21 03:18:14;;;;;;;87.97;34.17;;;10.40;99.90;;;;;;5077832;28;20046;-79
2023/10/21 03:21:00;;;;;;;76.85;32.75;;;10.30;99.90;;;;;;5074208;28;20048;-78
2023/10/21 03:23:46;;;;;;;109.65;36.53;;;10.30;99.90;;;;;;5073530;28;20090;-74
2023/10/21 03:26:32;;;;;;;106.68;35.45;;;10.20;99.90;;;;;;5066116;28;20052;-82
2023/10/21 03:29:18;;;;;;;88.00;33.90;;;10.20;99.90;;;;;;5065939;28;20109;-73
2023/10/21 03:32:05;;;;;;;78.82;32.10;;;10.20;99.90;;;;;;5078953;28;20048;-75
2023/10/21 03:34:54;;;;;;;93.18;33.97;;;10.10;99.90;;;;;;5098538;28;20068;-77
2023/10/21 03:37:41;;;;;;;107.65;36.45;;;10.10;99.90;;;;;;5078405;28;20518;-75
2023/10/21 03:40:27;;;;;;;87.32;32.47;;;10.00;99.90;;;;;;5067807;28;20086;-76
2023/10/21 03:43:13;;;;;;;87.28;34.28;;;10.10;99.90;;;;;;5080314;28;20059;-74
2023/10/21 03:46:05;;;;;;;86.38;31.52;;;10.00;99.90;;;;;;5079800;28;20052;-74
2023/10/21 03:48:50;;;;;;;93.80;32.67;;;10.00;99.90;;;;;;5078049;28;20048;-78
2023/10/21 03:51:36;;;;;;;84.30;32.00;;;10.00;99.90;;;;;;5078495;28;20119;-75
2023/10/21 03:54:22;;;;;;;98.15;34.72;;;10.00;99.90;;;;;;5087926;28;20051;-75
2023/10/21 03:57:08;;;;;;;114.82;38.03;;;10.00;99.90;;;;;;5073705;28;20101;-74
2023/10/21 03:59:54;;;;;;;95.50;36.42;;;10.00;99.90;;;;;;5059820;28;20173;-79
2023/10/21 04:02:41;;;;;;;92.43;34.30;;;10.00;99.90;;;;;;5073128;28;20084;-75
2023/10/21 04:05:28;;;;;;;93.10;36.28;;;10.00;99.90;;;;;;5073454;28;20056;-80
2023/10/21 04:08:15;;;;;;;85.05;34.28;;;10.00;99.90;;;;;;5073957;28;20062;-84
2023/10/21 04:11:01;;;;;;;104.07;34.75;;;10.00;99.90;;;;;;5060051;28;20048;-75
2023/10/21 04:13:47;;;;;;;85.05;32.45;;;9.90;99.90;;;;;;5072680;28;20056;-76
2023/10/21 04:16:33;;;;;;;91.82;34.35;;;9.90;99.90;;;;;;5090654;28;20062;-73
2023/10/21 04:19:19;;;;;;;76.05;29.98;;;9.90;99.90;;;;;;5091409;28;20135;-75
2023/10/21 04:22:05;;;;;;;82.15;30.25;;;9.80;99.90;;;;;;5073545;28;20130;-76
2023/10/21 04:24:51;;;;;;;68.20;29.33;;;9.80;99.90;;;;;;5073568;28;20052;-78
2023/10/21 04:27:37;;;;;;;72.68;29.65;;;9.80;99.90;;;;;;5072260;28;20056;-75
2023/10/21 04:30:25;;;;;;;74.38;30.67;;;9.70;99.90;;;;;;5072204;28;20453;-79
2023/10/21 04:33:12;;;;;;;85.47;31.10;;;9.70;99.90;;;;;;5073421;28;20507;-74
2023/10/21 04:35:58;;;;;;;89.75;32.97;;;9.70;99.90;;;;;;5059197;28;20526;-85
2023/10/21 04:38:45;;;;;;;70.53;28.33;;;9.60;99.90;;;;;;5072411;28;20048;-75
2023/10/21 04:41:31;;;;;;;94.40;32.38;;;9.60;99.90;;;;;;5060422;28;20575;-74
2023/10/21 04:44:17;;;;;;;100.65;32.33;;;9.60;99.90;;;;;;5072137;28;20158;-74
2023/10/21 04:47:03;;;;;;;76.50;31.40;;;9.50;99.90;;;;;;5090001;28;20148;-74
2023/10/21 04:49:49;;;;;;;72.43;29.10;;;9.50;99.90;;;;;;5072029;28;20056;-81
2023/10/21 04:52:35;;;;;;;87.78;33.67;;;9.50;99.90;;;;;;5071644;28;20055;-75
2023/10/21 04:55:22;;;;;;;87.05;32.75;;;9.50;99.90;;;;;;5071860;28;20161;-74
2023/10/21 04:58:08;;;;;;;81.18;31.15;;;9.50;99.90;;;;;;5072390;28;20048;-78
2023/10/21 05:00:54;;;;;;;70.68;28.67;;;9.40;99.90;;;;;;5072390;28;20130;-74
2023/10/21 05:03:40;;;;;;;91.07;33.17;;;9.40;99.90;;;;;;5060214;28;20521;-74
2023/10/21 05:06:26;;;;;;;81.68;32.30;;;9.40;99.90;;;;;;5089832;28;20483;-75
2023/10/21 05:09:12;;;;;;;111.68;35.85;;;9.40;99.90;;;;;;5059970;28;20056;-74
2023/10/21 05:11:59;;;;;;;88.50;32.92;;;9.40;99.90;;;;;;5071526;28;20083;-75
2023/10/21 05:14:45;;;;;;;112.03;36.17;;;9.40;99.90;;;;;;5059468;28;20087;-73
2023/10/21 05:17:31;;;;;;;98.30;32.63;;;9.40;99.90;;;;;;5059321;28;20060;-79
2023/10/21 05:20:18;;;;;;;91.22;33.78;;;9.40;99.90;;;;;;5071945;28;20059;-75
2023/10/21 05:23:03;;;;;;;97.43;35.78;;;9.40;99.90;;;;;;5059324;28;20051;-77
2023/10/21 05:25:49;;;;;;;87.78;34.13;;;9.40;99.90;;;;;;5071500;28;20407;-76
2023/10/21 05:28:35;;;;;;;80.38;33.60;;;9.40;99.90;;;;;;5070827;28;20274;-74
2023/10/21 05:31:22;;;;;;;90.40;33.92;;;9.30;99.90;;;;;;5071142;28;20416;-77
2023/10/21 05:34:08;;;;;;;93.00;33.95;;;9.40;99.90;;;;;;5089496;28;20058;-74
2023/10/21 05:36:54;;;;;;;90.03;33.33;;;9.40;99.90;;;;;;5089315;28;20085;-73
2023/10/21 05:39:41;;;;;;;85.95;33.28;;;9.40;99.90;;;;;;5071307;28;20056;-80
2023/10/21 05:42:27;;;;;;;86.55;32.17;;;9.40;99.90;;;;;;5072142;28;20052;-84
2023/10/21 05:45:13;;;;;;;81.25;30.67;;;9.40;99.90;;;;;;5089525;28;20101;-74
2023/10/21 05:47:59;;;;;;;88.63;32.97;;;9.40;99.90;;;;;;5089078;28;20059;-76
2023/10/21 05:50:45;;;;;;;80.53;30.17;;;9.40;99.90;;;;;;5071707;28;20419;-74
2023/10/21 05:53:31;;;;;;;77.85;29.65;;;9.40;99.90;;;;;;5057499;28;20063;-73
2023/10/21 05:56:17;;;;;;;84.07;32.25;;;9.50;99.90;;;;;;5073846;28;20105;-81
2023/10/21 05:59:04;;;;;;;87.03;33.00;;;9.40;99.90;;;;;;5062064;28;20083;-79
2023/10/21 06:01:50;;;;;;;65.47;28.33;;;9.50;99.90;;;;;;5093523;28;20549;-76
2023/10/21 06:04:36;;;;;;;99.97;31.58;;;9.50;99.90;;;;;;5075733;28;20063;-79
2023/10/21 06:07:22;;;;;;;72.70;30.05;;;9.40;99.90;;;;;;5061686;28;20143;-75
2023/10/21 06:10:08;;;;;;;79.22;29.42;;;9.50;99.90;;;;;;5075183;28;20381;-85
2023/10/21 06:12:54;;;;;;;89.25;30.75;;;9.50;99.90;;;;;;5075381;28;20055;-75
2023/10/21 06:15:40;;;;;;;79.47;28.30;;;9.50;99.90;;;;;;5075129;28;20052;-76
2023/10/21 06:18:26;;;;;;;79.85;28.58;;;9.50;99.90;;;;;;5076114;28;20110;-75
2023/10/21 06:21:12;;;;;;;72.25;28.33;;;9.50;99.90;;;;;;5074613;28;20048;-75
2023/10/21 06:23:59;;;;;;;74.10;28.63;;;9.50;99.90;;;;;;5075015;28;20056;-78
2023/10/21 06:26:45;;;;;;;70.30;26.55;;;9.50;99.90;;;;;;5092100;28;20048;-75
2023/10/21 06:29:30;;;;;;;61.90;26.92;;;9.50;99.90;;;;;;5074645;28;20048;-75
2023/10/21 06:32:16;;;;;;;71.75;28.02;;;9.50;99.90;;;;;;5074532;28;20060;-80
2023/10/21 06:35:03;;;;;;;81.97;29.08;;;9.50;99.90;;;;;;5074971;28;20092;-81
2023/10/21 06:37:49;;;;;;;68.63;26.95;;;9.50;99.90;;;;;;5074185;28;20059;-79
2023/10/21 06:40:35;;;;;;;79.95;28.20;;;9.50;99.90;;;;;;5061517;28;20056;-74
2023/10/21 06:43:25;;;;;;;79.90;28.88;;;9.50;99.90;;;;;;5074216;28;20098;-81
2023/10/21 06:46:13;;;;;;;67.90;27.15;;;9.60;99.90;;;;;;5074678;28;20048;-74
2023/10/21 06:48:59;;;;;;;68.50;26.35;;;9.60;99.90;;;;;;5073821;28;20086;-74
2023/10/21 06:51:49;;;;;;;62.28;25.48;;;9.60;99.90;;;;;;5074654;28;20056;-75
2023/10/21 06:54:35;;;;;;;59.10;25.23;;;9.60;99.90;;;;;;5074912;28;20067;-78
2023/10/21 06:57:21;;;;;;;58.90;23.33;;;9.70;99.90;;;;;;5073769;28;20406;-75
2023/10/21 07:00:08;;;;;;;63.63;24.95;;;9.80;99.90;;;;;;5073952;28;20056;-74
2023/10/21 07:02:55;;;;;;;57.45;24.23;;;9.80;99.90;;;;;;5074824;28;20051;-78
2023/10/21 07:05:41;;;;;;;64.60;24.10;;;9.90;99.90;;;;;;5074158;28;20480;-74
2023/10/21 07:08:26;;;;;;;52.80;23.83;;;9.90;99.90;;;;;;5090379;28;20052;-74
2023/10/21 07:11:13;;;;;;;60.97;24.80;;;10.00;99.90;;;;;;5073767;28;20056;-74
2023/10/21 07:13:59;;;;;;;62.05;24.25;;;10.00;99.90;;;;;;5074239;28;20044;-79
2023/10/21 07:16:45;;;;;;;57.53;22.80;;;10.10;99.90;;;;;;5073451;28;20530;-82
2023/10/21 07:19:31;;;;;;;56.50;21.90;;;10.10;99.90;;;;;;5073243;28;20048;-76
2023/10/21 07:22:17;;;;;;;57.13;24.30;;;10.20;99.90;;;;;;5073371;28;20056;-84
2023/10/21 07:25:05;;;;;;;54.90;22.65;;;10.20;99.90;;;;;;5074822;28;20096;-78
2023/10/21 07:27:51;;;;;;;54.25;22.92;;;10.30;99.90;;;;;;5074491;28;20508;-76
2023/10/21 07:30:37;;;;;;;50.78;22.45;;;10.30;99.90;;;;;;5092126;28;20051;-80
2023/10/21 07:33:23;;;;;;;50.25;22.08;;;10.30;99.90;;;;;;5061179;28;20048;-75
2023/10/21 07:36:09;;;;;;;55.50;23.50;;;10.40;99.90;;;;;;5073992;28;20519;-77
2023/10/21 07:38:56;;;;;;;47.47;21.30;;;10.40;99.90;;;;;;5060100;28;20055;-77
2023/10/21 07:41:43;;;;;;;53.05;21.98;;;10.50;99.90;;;;;;5073442;28;20098;-82
2023/10/21 07:44:29;;;;;;;48.08;21.35;;;10.50;99.90;;;;;;5059948;28;20055;-75
2023/10/21 07:47:15;;;;;;;49.88;22.10;;;10.50;99.90;;;;;;5073033;28;20052;-75
2023/10/21 07:50:06;;;;;;;54.97;22.35;;;10.50;99.90;;;;;;5074564;28;20159;-78
2023/10/21 07:52:53;;;;;;;50.55;24.60;;;10.50;99.90;;;;;;5070563;28;20097;-76
2023/10/21 07:55:40;;;;;;;52.35;22.30;;;10.60;99.90;;;;;;5073753;28;20094;-77
2023/10/21 07:58:26;;;;;;;44.03;21.65;;;10.60;99.90;;;;;;5073254;28;20094;-75
2023/10/21 08:01:13;;;;;;;50.80;20.27;;;10.70;99.90;;;;;;5091271;28;20055;-76
2023/10/21 08:04:00;;;;;;;50.45;20.60;;;10.70;99.90;;;;;;5073548;28;20040;-82
2023/10/21 08:06:46;;;;;;;46.97;21.20;;;10.80;99.90;;;;;;5074113;28;20393;-80
2023/10/21 08:09:32;;;;;;;53.15;21.65;;;10.80;99.90;;;;;;5073626;28;20530;-76
2023/10/21 08:12:20;;;;;;;44.85;20.63;;;10.90;99.90;;;;;;5072238;28;20128;-75
2023/10/21 08:15:07;;;;;;;51.17;24.20;;;10.90;99.90;;;;;;5072814;28;20079;-81
2023/10/21 08:17:53;;;;;;;46.08;23.23;;;11.00;99.90;;;;;;5058634;28;20139;-81
2023/10/21 08:20:39;;;;;;;48.33;22.10;;;11.10;99.90;;;;;;5072104;28;20070;-75
2023/10/21 08:23:27;;;;;;;55.53;24.25;;;11.20;99.90;;;;;;5081990;28;20048;-79
2023/10/21 08:26:13;;;;;;;48.47;22.60;;;11.20;99.90;;;;;;5072212;28;20059;-84
2023/10/21 08:28:59;;;;;;;48.97;22.90;;;11.30;99.90;;;;;;5072282;28;20058;-80
2023/10/21 08:31:45;;;;;;;44.28;21.40;;;11.40;99.90;;;;;;5073145;28;20048;-82
2023/10/21 08:34:32;;;;;;;57.92;24.67;;;11.50;99.90;;;;;;5071830;28;20097;-78
2023/10/21 08:37:18;;;;;;;47.72;21.92;;;11.60;99.90;;;;;;5073295;28;20062;-80
2023/10/21 08:40:10;;;;;;;52.05;24.10;;;11.60;99.90;;;;;;5072037;28;20056;-79
2023/10/21 08:43:00;;;;;;;54.25;25.40;;;11.70;99.90;;;;;;5078541;28;20446;-82
2023/10/21 08:45:48;;;;;;;49.05;22.83;;;11.90;99.90;;;;;;5072891;28;20091;-80
2023/10/21 08:48:36;;;;;;;42.90;21.80;;;12.00;99.90;;;;;;5072832;28;20051;-79
2023/10/21 08:51:25;;;;;;;46.67;21.50;;;12.10;99.90;;;;;;5072867;28;20055;-80
2023/10/21 08:54:12;;;;;;;44.90;21.40;;;12.10;99.90;;;;;;5072649;28;20151;-77
2023/10/21 08:56:58;;;;;;;52.58;21.73;;;12.30;99.90;;;;;;5072021;28;20145;-77
2023/10/21 08:59:44;;;;;;;49.78;21.98;;;12.40;99.90;;;;;;5071418;28;20056;-80
2023/10/21 09:02:30;;;;;;;45.30;22.20;;;12.50;99.90;;;;;;5071390;28;20044;-74
2023/10/21 09:05:17;;;;;;;36.50;19.98;;;12.60;99.90;;;;;;5071453;28;20087;-86
2023/10/21 09:08:04;;;;;;;30.88;18.40;;;12.70;99.90;;;;;;5059081;28;20059;-80
2023/10/21 09:10:59;;;;;;;37.65;18.50;;;12.80;99.90;;;;;;5071366;28;20071;-77
2023/10/21 09:13:45;;;;;;;37.20;17.25;;;12.90;99.90;;;;;;5071122;28;20048;-77
2023/10/21 09:16:31;;;;;;;30.48;17.95;;;12.90;99.90;;;;;;5072332;28;20071;-82
2023/10/21 09:19:25;;;;;;;28.92;17.08;;;13.10;99.90;;;;;;5071106;28;20059;-75
2023/10/21 09:22:22;;;;;;;32.53;15.90;;;13.10;99.90;;;;;;5072032;28;20114;-75
2023/10/21 09:25:18;;;;;;;28.35;17.17;;;13.20;99.90;;;;;;5089458;28;20055;-76
2023/10/21 09:28:04;;;;;;;36.55;17.50;;;13.40;99.90;;;;;;5071786;28;20055;-76
2023/10/21 09:30:58;;;;;;;29.63;16.55;;;13.60;99.90;;;;;;5070720;28;20135;-82
2023/10/21 09:33:55;;;;;;;26.00;16.27;;;13.70;99.90;;;;;;5071723;28;20495;-78
2023/10/21 09:36:41;;;;;;;25.70;14.52;;;13.80;99.90;;;;;;5071730;28;20048;-78
2023/10/21 09:39:32;;;;;;;24.33;13.30;;;13.90;99.90;;;;;;5071274;28;20048;-83
2023/10/21 09:42:21;;;;;;;22.92;14.00;;;14.00;99.90;;;;;;5072051;28;20055;-79
2023/10/21 09:45:09;;;;;;;20.90;11.95;;;14.10;99.90;;;;;;5071117;28;20067;-81
2023/10/21 09:47:57;;;;;;;20.63;12.48;;;14.10;99.90;;;;;;5071483;28;20048;-73
2023/10/21 09:50:51;;;;;;;22.73;11.88;;;14.10;99.90;;;;;;5071623;28;20404;-81
2023/10/21 09:53:47;;;;;;;19.95;11.73;;;14.10;99.90;;;;;;5072057;28;20420;-80
2023/10/21 09:56:34;;;;;;;17.98;10.40;;;14.10;99.90;;;;;;5071775;28;20051;-82
2023/10/21 09:59:23;;;;;;;20.35;10.73;;;14.10;99.90;;;;;;5072039;28;20130;-82
2023/10/21 10:02:09;;;;;;;19.13;9.90;;;14.10;99.90;;;;;;5070617;28;20047;-76
2023/10/21 10:04:57;;;;;;;15.43;9.65;;;14.10;99.90;;;;;;5071181;28;20059;-76
2023/10/21 10:07:45;;;;;;;18.65;9.35;;;14.10;99.90;;;;;;5071848;28;20059;-79
2023/10/21 10:10:31;;;;;;;16.40;9.15;;;14.10;99.90;;;;;;5057091;28;20537;-75
2023/10/21 10:13:18;;;;;;;14.20;8.18;;;14.20;99.90;;;;;;5071996;28;20060;-78
2023/10/21 10:16:23;;;;;;;12.30;7.40;;;14.20;99.90;;;;;;5072023;28;20132;-78
2023/10/21 10:19:09;;;;;;;17.05;7.57;;;14.10;99.90;;;;;;5071113;28;20077;-82
2023/10/21 10:21:57;;;;;;;12.40;6.95;;;14.20;99.90;;;;;;5071794;28;20056;-76
2023/10/21 10:25:10;;;;;;;17.25;7.90;;;14.10;99.90;;;;;;5071952;28;20056;-77
2023/10/21 10:28:08;;;;;;;13.27;6.70;;;14.10;99.90;;;;;;5070937;28;20337;-81
2023/10/21 10:30:56;;;;;;;12.27;6.97;;;14.10;99.90;;;;;;5071262;28;20492;-79
2023/10/21 10:33:50;;;;;;;12.93;5.70;;;14.10;99.90;;;;;;5075703;28;20083;-78
2023/10/21 10:36:36;;;;;;;9.65;5.25;;;14.00;99.90;;;;;;5071240;28;20064;-80
2023/10/21 10:39:38;;;;;;;11.68;5.53;;;13.90;99.90;;;;;;5071920;28;20725;-76
2023/10/21 10:42:29;;;;;;;10.98;5.45;;;13.90;99.90;;;;;;5073379;28;20056;-82
2023/10/21 10:45:15;;;;;;;12.77;6.05;;;13.90;99.90;;;;;;5075617;28;20059;-79
2023/10/21 10:48:02;;;;;;;17.95;7.25;;;13.80;99.90;;;;;;5061219;28;20048;-77
2023/10/21 10:50:48;;;;;;;10.07;5.10;;;13.80;99.90;;;;;;5074685;28;20047;-75
2023/10/21 10:53:34;;;;;;;10.98;3.72;;;13.90;99.90;;;;;;5061413;28;20056;-80
2023/10/21 10:56:21;;;;;;;10.90;3.30;;;13.80;99.90;;;;;;5074568;28;20044;-75
2023/10/21 10:59:12;;;;;;;7.28;3.30;;;13.80;99.90;;;;;;5074969;28;20048;-74
2023/10/21 11:01:58;;;;;;;6.28;2.72;;;13.70;99.90;;;;;;5075156;28;20052;-78
2023/10/21 11:04:48;;;;;;;8.80;3.15;;;13.60;99.90;;;;;;5075076;28;20411;-77
2023/10/21 11:07:35;;;;;;;7.22;3.25;;;13.60;99.90;;;;;;5068641;28;20059;-82
2023/10/21 11:10:22;;;;;;;4.90;3.08;;;13.50;99.90;;;;;;5073701;28;20036;-78
2023/10/21 11:13:08;;;;;;;7.88;3.05;;;13.50;99.90;;;;;;5073411;28;20407;-76
2023/10/21 11:15:55;;;;;;;4.53;2.35;;;13.50;99.90;;;;;;5060654;28;20055;-78
2023/10/21 11:18:41;;;;;;;5.88;2.95;;;13.60;99.90;;;;;;5060604;28;20052;-75
2023/10/21 11:21:41;;;;;;;5.00;2.80;;;13.80;99.90;;;;;;5061312;28;20052;-75
2023/10/21 11:24:30;;;;;;;6.20;2.90;;;14.00;99.90;;;;;;5053180;28;20157;-76
2023/10/21 11:27:16;;;;;;;8.25;3.13;;;14.20;99.90;;;;;;5074843;28;20055;-72
2023/10/21 11:30:07;;;;;;;4.43;2.30;;;14.30;99.90;;;;;;5074375;28;20491;-74
2023/10/21 11:32:54;;;;;;;5.05;2.83;;;14.30;99.90;;;;;;5074706;28;20044;-76
2023/10/21 11:35:43;;;;;;;6.90;2.25;;;14.20;99.90;;;;;;5073627;28;20094;-76
2023/10/21 11:38:30;;;;;;;11.13;2.10;;;14.10;99.90;;;;;;5092774;28;20052;-77
2023/10/21 11:41:16;;;;;;;5.30;1.60;;;13.90;99.90;;;;;;5060941;28;20052;-80
2023/10/21 11:44:04;;;;;;;2.95;1.48;;;13.80;99.90;;;;;;5075177;28;20056;-79
2023/10/21 11:46:50;;;;;;;4.25;1.60;;;13.60;99.90;;;;;;5092823;28;20048;-77
2023/10/21 11:49:39;;;;;;;4.22;1.40;;;13.60;99.90;;;;;;5073688;28;20113;-76
2023/10/21 11:52:26;;;;;;;5.13;2.00;;;13.60;99.90;;;;;;5075147;28;20050;-77
2023/10/21 12:10:38;;;;;;;4.93;1.70;;;13.70;99.90;;;;;;5075002;28;20083;-79
2023/10/21 12:31:41;;;;;;;4.20;1.08;;;14.10;99.90;;;;;;5072845;28;20052;-78
2023/10/21 12:46:18;;;;;;;4.30;1.20;;;14.00;99.90;;;;;;5072976;28;20055;-84
2023/10/21 12:49:12;;;;;;;2.70;1.10;;;14.00;99.90;;;;;;5073012;28;20121;-76
2023/10/21 12:51:58;;;;;;;2.72;0.82;;;14.20;99.90;;;;;;5073297;28;20102;-76
2023/10/21 12:54:44;;;;;;;5.18;2.03;;;14.40;99.90;;;;;;5059000;28;20059;-75
2023/10/21 12:57:30;;;;;;;2.58;0.80;;;15.30;99.90;;;;;;5072074;28;20052;-78
2023/10/21 13:00:19;;;;;;;4.35;0.70;;;16.80;99.90;;;;;;5073087;28;20193;-78
2023/10/21 13:03:10;;;;;;;2.22;0.70;;;17.40;99.90;;;;;;5072767;28;20052;-82
2023/10/21 13:05:56;;;;;;;3.88;0.80;;;17.80;99.90;;;;;;5073510;28;20056;-78
2023/10/21 13:08:43;;;;;;;4.97;0.82;;;17.90;99.90;;;;;;5072627;28;20055;-81
2023/10/21 13:11:29;;;;;;;1.63;0.70;;;17.60;99.90;;;;;;5072558;28;20056;-78
2023/10/21 13:14:16;;;;;;;1.65;0.75;;;17.80;99.90;;;;;;5073419;28;20052;-82
2023/10/21 13:17:07;;;;;;;4.45;0.80;;;17.70;99.90;;;;;;5073133;28;20048;-74
2023/10/21 13:19:54;;;;;;;3.40;1.17;;;17.40;99.90;;;;;;5071756;28;20058;-74
2023/10/21 13:22:40;;;;;;;3.00;0.73;;;16.90;99.90;;;;;;5058664;28;20095;-75
2023/10/21 13:25:26;;;;;;;3.78;0.70;;;16.60;99.90;;;;;;5072024;28;20077;-75
2023/10/21 13:28:12;;;;;;;4.57;0.80;;;16.40;99.90;;;;;;5072154;28;20056;-82
2023/10/21 13:30:58;;;;;;;6.90;1.42;;;16.30;99.90;;;;;;5075453;28;20051;-75
2023/10/21 13:33:44;;;;;;;4.28;1.00;;;16.10;99.90;;;;;;5090182;28;20040;-77
2023/10/21 13:36:33;;;;;;;5.30;0.60;;;15.90;99.90;;;;;;5072592;28;20048;-78
2023/10/21 13:39:19;;;;;;;6.07;1.02;;;15.70;99.90;;;;;;5072596;28;20117;-76
2023/10/21 13:42:05;;;;;;;5.72;1.20;;;15.40;99.90;;;;;;5089914;28;20110;-74
2023/10/21 13:44:51;;;;;;;4.88;0.88;;;15.30;99.90;;;;;;5072104;28;20059;-76
2023/10/21 13:47:37;;;;;;;2.47;0.82;;;15.20;99.90;;;;;;5089501;28;20062;-79
2023/10/21 13:50:25;;;;;;;5.50;0.98;;;15.10;99.90;;;;;;5072530;28;20105;-77
2023/10/21 13:53:11;;;;;;;4.18;0.85;;;15.00;99.90;;;;;;5072254;28;20052;-74
2023/10/21 13:55:57;;;;;;;2.83;0.98;;;14.90;99.90;;;;;;5072541;28;20095;-75
2023/10/21 13:58:46;;;;;;;4.10;0.77;;;14.80;99.90;;;;;;5057854;28;20412;-77
2023/10/21 14:01:32;;;;;;;2.35;0.80;;;14.70;99.90;;;;;;5090014;28;20573;-79
2023/10/21 14:04:19;;;;;;;4.75;0.95;;;14.70;99.90;;;;;;5072005;28;20094;-76
2023/10/21 14:07:05;;;;;;;2.67;0.75;;;14.80;99.90;;;;;;5071710;28;20496;-80
2023/10/21 14:09:52;;;;;;;5.80;0.80;;;15.40;99.90;;;;;;5070590;28;20537;-81
2023/10/21 14:12:39;;;;;;;4.00;0.95;;;16.30;99.90;;;;;;5072168;28;20052;-78
2023/10/21 14:15:25;;;;;;;4.03;1.08;;;17.30;99.90;;;;;;5071956;28;20043;-77
2023/10/21 14:18:11;;;;;;;2.97;0.82;;;19.20;99.90;;;;;;5074784;28;20562;-81
2023/10/21 14:20:59;;;;;;;4.28;0.70;;;21.10;99.90;;;;;;5075384;28;20091;-84
2023/10/21 14:23:45;;;;;;;3.10;0.60;;;22.20;99.90;;;;;;5075688;28;20091;-78
2023/10/21 14:26:32;;;;;;;3.55;1.00;;;23.10;99.90;;;;;;5075706;28;20500;-84
2023/10/21 14:29:18;;;;;;;3.13;0.80;;;23.90;99.90;;;;;;5075897;28;20056;-78
2023/10/21 14:32:05;;;;;;;3.65;1.13;;;24.70;99.90;;;;;;5076129;28;20055;-77
2023/10/21 14:34:53;;;;;;;3.05;0.70;;;25.30;99.90;;;;;;5075672;28;20052;-77
2023/10/21 14:37:39;;;;;;;7.93;0.80;;;25.60;98.80;;;;;;5075626;28;20052;-74
2023/10/21 14:40:25;;;;;;;1.92;0.52;;;25.70;97.40;;;;;;5067502;28;20204;-78
2023/10/21 14:43:12;;;;;;;2.17;0.52;;;25.70;96.00;;;;;;5093381;28;20097;-79
2023/10/21 14:45:58;;;;;;;3.75;0.60;;;25.80;95.30;;;;;;5093015;28;20047;-73
2023/10/21 14:48:44;;;;;;;3.58;0.80;;;25.70;95.10;;;;;;5062196;28;20051;-80
2023/10/21 14:51:30;;;;;;;5.00;1.15;;;25.70;94.50;;;;;;5075258;28;20442;-78
2023/10/21 14:54:16;;;;;;;2.47;0.63;;;25.70;94.20;;;;;;5060198;28;20052;-80
2023/10/21 14:57:03;;;;;;;3.40;0.80;;;25.70;93.10;;;;;;5075347;28;20044;-79
2023/10/21 14:59:50;;;;;;;4.03;0.88;;;25.60;93.00;;;;;;5075755;28;20044;-77